sensor_id;sensor_type;location;lat;lon;timestamp;P1;durP1;ratioP1;P2;durP2;ratioP2
6203;SDS011;3135;42.602;23.468;2022-12-05T00:02:01;4.10;;;2.20;;
6203;SDS011;3135;42.602;23.468;2022-12-05T00:04:27;4.67;;;3.10;;
6203;SDS011;3135;42.602;23.468;2022-12-05T00:06:52;2.40;;;1.90;;
6203;SDS011;3135;42.602;23.468;2022-12-05T00:09:18;3.63;;;2.37;;
6203;SDS011;3135;42.602;23.468;2022-12-05T00:11:43;4.65;;;2.60;;
6203;SDS011;3135;42.602;23.468;2022-12-05T00:14:09;2.63;;;2.10;;
6203;SDS011;3135;42.602;23.468;2022-12-05T00:16:36;3.72;;;2.38;;
6203;SDS011;3135;42.602;23.468;2022-12-05T00:19:03;2.33;;;1.60;;
6203;SDS011;3135;42.602;23.468;2022-12-05T00:21:31;2.22;;;1.83;;
6203;SDS011;3135;42.602;23.468;2022-12-05T00:23:59;3.85;;;2.22;;
6203;SDS011;3135;42.602;23.468;2022-12-05T00:26:25;3.65;;;2.08;;
6203;SDS011;3135;42.602;23.468;2022-12-05T00:28:51;2.50;;;2.10;;
6203;SDS011;3135;42.602;23.468;2022-12-05T00:31:18;3.58;;;1.98;;
6203;SDS011;3135;42.602;23.468;2022-12-05T00:33:45;3.27;;;2.10;;
6203;SDS011;3135;42.602;23.468;2022-12-05T00:36:12;3.10;;;2.17;;
6203;SDS011;3135;42.602;23.468;2022-12-05T00:38:39;2.45;;;2.08;;
6203;SDS011;3135;42.602;23.468;2022-12-05T00:41:07;3.15;;;1.85;;
6203;SDS011;3135;42.602;23.468;2022-12-05T00:43:38;2.97;;;1.80;;
6203;SDS011;3135;42.602;23.468;2022-12-05T00:46:07;2.90;;;2.13;;
6203;SDS011;3135;42.602;23.468;2022-12-05T00:48:37;4.40;;;2.30;;
6203;SDS011;3135;42.602;23.468;2022-12-05T00:51:04;3.38;;;2.03;;
6203;SDS011;3135;42.602;23.468;2022-12-05T00:53:32;3.33;;;1.55;;
6203;SDS011;3135;42.602;23.468;2022-12-05T00:56:02;3.08;;;1.83;;
6203;SDS011;3135;42.602;23.468;2022-12-05T00:58:28;4.77;;;2.67;;
6203;SDS011;3135;42.602;23.468;2022-12-05T01:00:54;3.72;;;2.40;;
6203;SDS011;3135;42.602;23.468;2022-12-05T01:03:19;4.37;;;2.57;;
6203;SDS011;3135;42.602;23.468;2022-12-05T01:05:45;6.27;;;3.13;;
6203;SDS011;3135;42.602;23.468;2022-12-05T01:08:10;4.30;;;2.43;;
6203;SDS011;3135;42.602;23.468;2022-12-05T01:10:36;4.87;;;2.30;;
6203;SDS011;3135;42.602;23.468;2022-12-05T01:13:01;2.97;;;1.98;;
6203;SDS011;3135;42.602;23.468;2022-12-05T01:15:27;4.05;;;2.20;;
6203;SDS011;3135;42.602;23.468;2022-12-05T01:17:52;2.70;;;1.90;;
6203;SDS011;3135;42.602;23.468;2022-12-05T01:20:18;4.73;;;2.80;;
6203;SDS011;3135;42.602;23.468;2022-12-05T01:22:43;2.73;;;1.90;;
6203;SDS011;3135;42.602;23.468;2022-12-05T01:25:09;7.40;;;4.17;;
6203;SDS011;3135;42.602;23.468;2022-12-05T01:27:34;4.63;;;2.80;;
6203;SDS011;3135;42.602;23.468;2022-12-05T01:30:00;4.65;;;1.92;;
6203;SDS011;3135;42.602;23.468;2022-12-05T01:32:25;4.07;;;1.90;;
6203;SDS011;3135;42.602;23.468;2022-12-05T01:34:51;4.83;;;2.73;;
6203;SDS011;3135;42.602;23.468;2022-12-05T01:37:16;3.97;;;2.23;;
6203;SDS011;3135;42.602;23.468;2022-12-05T01:39:41;3.00;;;2.20;;
6203;SDS011;3135;42.602;23.468;2022-12-05T01:42:07;4.33;;;2.10;;
6203;SDS011;3135;42.602;23.468;2022-12-05T01:46:58;4.23;;;2.50;;
6203;SDS011;3135;42.602;23.468;2022-12-05T01:49:27;3.03;;;1.90;;
6203;SDS011;3135;42.602;23.468;2022-12-05T01:51:58;2.53;;;1.80;;
6203;SDS011;3135;42.602;23.468;2022-12-05T01:54:29;10.80;;;5.32;;
6203;SDS011;3135;42.602;23.468;2022-12-05T01:56:57;3.80;;;2.73;;
6203;SDS011;3135;42.602;23.468;2022-12-05T01:59:27;2.92;;;2.03;;
6203;SDS011;3135;42.602;23.468;2022-12-05T02:01:54;3.33;;;2.17;;
6203;SDS011;3135;42.602;23.468;2022-12-05T02:04:20;2.90;;;2.20;;
6203;SDS011;3135;42.602;23.468;2022-12-05T02:06:45;5.53;;;3.47;;
6203;SDS011;3135;42.602;23.468;2022-12-05T02:09:11;4.27;;;2.33;;
6203;SDS011;3135;42.602;23.468;2022-12-05T02:11:40;3.37;;;2.20;;
6203;SDS011;3135;42.602;23.468;2022-12-05T02:14:38;2.50;;;2.00;;
6203;SDS011;3135;42.602;23.468;2022-12-05T02:34:01;3.80;;;2.40;;
6203;SDS011;3135;42.602;23.468;2022-12-05T02:41:48;2.58;;;1.88;;
6203;SDS011;3135;42.602;23.468;2022-12-05T02:46:48;4.70;;;2.67;;
6203;SDS011;3135;42.602;23.468;2022-12-05T02:49:18;11.23;;;4.20;;
6203;SDS011;3135;42.602;23.468;2022-12-05T02:51:49;6.20;;;3.25;;
6203;SDS011;3135;42.602;23.468;2022-12-05T02:54:19;3.60;;;2.03;;
6203;SDS011;3135;42.602;23.468;2022-12-05T02:56:48;4.57;;;2.65;;
6203;SDS011;3135;42.602;23.468;2022-12-05T02:59:16;5.30;;;2.70;;
6203;SDS011;3135;42.602;23.468;2022-12-05T03:01:43;2.72;;;2.00;;
6203;SDS011;3135;42.602;23.468;2022-12-05T03:04:10;2.47;;;1.88;;
6203;SDS011;3135;42.602;23.468;2022-12-05T03:06:39;3.20;;;2.50;;
6203;SDS011;3135;42.602;23.468;2022-12-05T03:09:12;5.82;;;3.15;;
6203;SDS011;3135;42.602;23.468;2022-12-05T03:11:44;4.83;;;2.73;;
6203;SDS011;3135;42.602;23.468;2022-12-05T03:14:25;2.80;;;1.90;;
6203;SDS011;3135;42.602;23.468;2022-12-05T03:16:55;4.57;;;2.47;;
6203;SDS011;3135;42.602;23.468;2022-12-05T03:19:29;3.97;;;2.22;;
6203;SDS011;3135;42.602;23.468;2022-12-05T03:22:09;3.95;;;2.05;;
6203;SDS011;3135;42.602;23.468;2022-12-05T03:24:43;5.90;;;2.80;;
6203;SDS011;3135;42.602;23.468;2022-12-05T03:35:26;2.90;;;2.08;;
6203;SDS011;3135;42.602;23.468;2022-12-05T03:38:24;11.63;;;4.88;;
6203;SDS011;3135;42.602;23.468;2022-12-05T03:40:52;11.15;;;6.05;;
6203;SDS011;3135;42.602;23.468;2022-12-05T03:44:04;6.55;;;3.40;;
6203;SDS011;3135;42.602;23.468;2022-12-05T03:46:31;5.88;;;4.10;;
6203;SDS011;3135;42.602;23.468;2022-12-05T03:52:13;6.40;;;3.63;;
6203;SDS011;3135;42.602;23.468;2022-12-05T03:54:25;5.63;;;3.28;;
6203;SDS011;3135;42.602;23.468;2022-12-05T03:57:01;6.20;;;3.60;;
6203;SDS011;3135;42.602;23.468;2022-12-05T03:59:56;3.28;;;2.50;;
6203;SDS011;3135;42.602;23.468;2022-12-05T04:02:40;4.32;;;2.22;;
6203;SDS011;3135;42.602;23.468;2022-12-05T04:05:17;5.70;;;3.40;;
6203;SDS011;3135;42.602;23.468;2022-12-05T04:07:52;5.90;;;3.28;;
6203;SDS011;3135;42.602;23.468;2022-12-05T04:10:23;17.05;;;6.10;;
6203;SDS011;3135;42.602;23.468;2022-12-05T04:12:53;7.05;;;3.20;;
6203;SDS011;3135;42.602;23.468;2022-12-05T04:15:24;3.60;;;1.85;;
6203;SDS011;3135;42.602;23.468;2022-12-05T04:18:17;3.28;;;1.88;;
6203;SDS011;3135;42.602;23.468;2022-12-05T04:20:48;5.97;;;3.88;;
6203;SDS011;3135;42.602;23.468;2022-12-05T04:23:34;3.72;;;2.10;;
6203;SDS011;3135;42.602;23.468;2022-12-05T04:26:14;6.65;;;3.40;;
6203;SDS011;3135;42.602;23.468;2022-12-05T04:28:48;4.68;;;3.25;;
6203;SDS011;3135;42.602;23.468;2022-12-05T04:31:24;7.10;;;3.90;;
6203;SDS011;3135;42.602;23.468;2022-12-05T04:33:59;5.07;;;3.33;;
6203;SDS011;3135;42.602;23.468;2022-12-05T04:36:32;5.72;;;3.20;;
6203;SDS011;3135;42.602;23.468;2022-12-05T04:39:05;10.18;;;6.10;;
6203;SDS011;3135;42.602;23.468;2022-12-05T04:41:39;8.10;;;4.20;;
6203;SDS011;3135;42.602;23.468;2022-12-05T04:44:13;15.82;;;8.10;;
6203;SDS011;3135;42.602;23.468;2022-12-05T04:46:42;6.63;;;3.60;;
6203;SDS011;3135;42.602;23.468;2022-12-05T04:49:10;3.80;;;2.00;;
6203;SDS011;3135;42.602;23.468;2022-12-05T04:51:40;6.73;;;4.50;;
6203;SDS011;3135;42.602;23.468;2022-12-05T04:54:08;3.90;;;2.42;;
6203;SDS011;3135;42.602;23.468;2022-12-05T04:56:41;4.07;;;2.78;;
6203;SDS011;3135;42.602;23.468;2022-12-05T04:59:10;4.40;;;2.75;;
6203;SDS011;3135;42.602;23.468;2022-12-05T05:02:09;8.83;;;5.40;;
6203;SDS011;3135;42.602;23.468;2022-12-05T05:04:32;3.55;;;1.90;;
6203;SDS011;3135;42.602;23.468;2022-12-05T05:07:05;3.42;;;2.22;;
6203;SDS011;3135;42.602;23.468;2022-12-05T05:09:31;4.75;;;2.35;;
6203;SDS011;3135;42.602;23.468;2022-12-05T05:11:57;3.65;;;2.25;;
6203;SDS011;3135;42.602;23.468;2022-12-05T05:14:23;4.30;;;2.30;;
6203;SDS011;3135;42.602;23.468;2022-12-05T05:16:48;8.10;;;3.80;;
6203;SDS011;3135;42.602;23.468;2022-12-05T05:19:13;5.33;;;2.00;;
6203;SDS011;3135;42.602;23.468;2022-12-05T05:21:40;4.63;;;2.20;;
6203;SDS011;3135;42.602;23.468;2022-12-05T05:24:07;5.75;;;3.05;;
6203;SDS011;3135;42.602;23.468;2022-12-05T05:26:34;7.40;;;3.13;;
6203;SDS011;3135;42.602;23.468;2022-12-05T05:29:02;8.50;;;3.37;;
6203;SDS011;3135;42.602;23.468;2022-12-05T05:31:28;6.30;;;3.53;;
6203;SDS011;3135;42.602;23.468;2022-12-05T05:33:54;5.55;;;3.58;;
6203;SDS011;3135;42.602;23.468;2022-12-05T05:36:21;5.40;;;2.72;;
6203;SDS011;3135;42.602;23.468;2022-12-05T05:38:49;5.93;;;3.33;;
6203;SDS011;3135;42.602;23.468;2022-12-05T05:41:17;7.97;;;3.70;;
6203;SDS011;3135;42.602;23.468;2022-12-05T05:43:44;4.13;;;2.70;;
6203;SDS011;3135;42.602;23.468;2022-12-05T05:46:10;10.35;;;5.30;;
6203;SDS011;3135;42.602;23.468;2022-12-05T05:48:36;6.90;;;4.15;;
6203;SDS011;3135;42.602;23.468;2022-12-05T05:51:02;5.40;;;3.43;;
6203;SDS011;3135;42.602;23.468;2022-12-05T05:53:29;6.38;;;3.78;;
6203;SDS011;3135;42.602;23.468;2022-12-05T05:55:55;16.17;;;6.85;;
6203;SDS011;3135;42.602;23.468;2022-12-05T05:58:20;8.90;;;4.13;;
6203;SDS011;3135;42.602;23.468;2022-12-05T06:00:46;8.85;;;5.03;;
6203;SDS011;3135;42.602;23.468;2022-12-05T06:03:12;4.83;;;3.20;;
6203;SDS011;3135;42.602;23.468;2022-12-05T06:05:37;10.38;;;4.82;;
6203;SDS011;3135;42.602;23.468;2022-12-05T06:08:03;7.80;;;3.70;;
6203;SDS011;3135;42.602;23.468;2022-12-05T06:10:28;2.95;;;2.22;;
6203;SDS011;3135;42.602;23.468;2022-12-05T06:12:55;5.80;;;2.90;;
6203;SDS011;3135;42.602;23.468;2022-12-05T06:15:21;3.42;;;2.00;;
6203;SDS011;3135;42.602;23.468;2022-12-05T06:17:47;2.75;;;1.85;;
6203;SDS011;3135;42.602;23.468;2022-12-05T06:20:13;3.10;;;1.90;;
6203;SDS011;3135;42.602;23.468;2022-12-05T06:22:38;3.43;;;1.53;;
6203;SDS011;3135;42.602;23.468;2022-12-05T06:25:04;6.13;;;3.50;;
6203;SDS011;3135;42.602;23.468;2022-12-05T06:27:30;2.50;;;2.30;;
6203;SDS011;3135;42.602;23.468;2022-12-05T06:29:56;2.83;;;2.17;;
6203;SDS011;3135;42.602;23.468;2022-12-05T06:32:22;5.80;;;3.73;;
6203;SDS011;3135;42.602;23.468;2022-12-05T06:34:47;3.38;;;1.83;;
6203;SDS011;3135;42.602;23.468;2022-12-05T06:37:13;3.57;;;2.13;;
6203;SDS011;3135;42.602;23.468;2022-12-05T06:39:38;6.33;;;4.00;;
6203;SDS011;3135;42.602;23.468;2022-12-05T06:42:04;1.97;;;1.73;;
6203;SDS011;3135;42.602;23.468;2022-12-05T06:44:30;2.60;;;2.00;;
6203;SDS011;3135;42.602;23.468;2022-12-05T06:46:55;12.25;;;5.57;;
6203;SDS011;3135;42.602;23.468;2022-12-05T06:49:21;3.50;;;2.33;;
6203;SDS011;3135;42.602;23.468;2022-12-05T06:51:50;3.38;;;2.38;;
6203;SDS011;3135;42.602;23.468;2022-12-05T06:54:16;3.60;;;2.47;;
6203;SDS011;3135;42.602;23.468;2022-12-05T06:56:41;4.30;;;3.53;;
6203;SDS011;3135;42.602;23.468;2022-12-05T06:59:07;3.25;;;2.35;;
6203;SDS011;3135;42.602;23.468;2022-12-05T07:01:32;6.53;;;4.55;;
6203;SDS011;3135;42.602;23.468;2022-12-05T07:04:26;2.33;;;1.75;;
6203;SDS011;3135;42.602;23.468;2022-12-05T07:06:51;2.53;;;1.92;;
6203;SDS011;3135;42.602;23.468;2022-12-05T07:09:19;5.85;;;3.25;;
6203;SDS011;3135;42.602;23.468;2022-12-05T07:11:47;5.95;;;3.00;;
6203;SDS011;3135;42.602;23.468;2022-12-05T07:14:13;5.60;;;2.75;;
6203;SDS011;3135;42.602;23.468;2022-12-05T07:16:39;6.73;;;3.53;;
6203;SDS011;3135;42.602;23.468;2022-12-05T07:19:04;15.40;;;4.80;;
6203;SDS011;3135;42.602;23.468;2022-12-05T07:21:30;25.55;;;6.20;;
6203;SDS011;3135;42.602;23.468;2022-12-05T07:23:55;2.87;;;1.97;;
6203;SDS011;3135;42.602;23.468;2022-12-05T07:26:21;2.87;;;2.00;;
6203;SDS011;3135;42.602;23.468;2022-12-05T07:28:48;3.13;;;2.13;;
6203;SDS011;3135;42.602;23.468;2022-12-05T07:31:19;3.70;;;2.28;;
6203;SDS011;3135;42.602;23.468;2022-12-05T07:33:46;9.00;;;5.07;;
6203;SDS011;3135;42.602;23.468;2022-12-05T07:36:13;3.30;;;2.40;;
6203;SDS011;3135;42.602;23.468;2022-12-05T07:38:40;3.50;;;2.40;;
6203;SDS011;3135;42.602;23.468;2022-12-05T07:41:12;2.90;;;1.88;;
6203;SDS011;3135;42.602;23.468;2022-12-05T07:43:40;3.42;;;2.28;;
6203;SDS011;3135;42.602;23.468;2022-12-05T07:46:06;4.03;;;2.20;;
6203;SDS011;3135;42.602;23.468;2022-12-05T07:48:35;3.70;;;2.13;;
6203;SDS011;3135;42.602;23.468;2022-12-05T07:51:01;4.73;;;2.30;;
6203;SDS011;3135;42.602;23.468;2022-12-05T07:53:29;4.15;;;2.20;;
6203;SDS011;3135;42.602;23.468;2022-12-05T07:55:57;3.58;;;2.25;;
6203;SDS011;3135;42.602;23.468;2022-12-05T07:58:24;4.30;;;3.00;;
6203;SDS011;3135;42.602;23.468;2022-12-05T08:00:50;4.93;;;4.43;;
6203;SDS011;3135;42.602;23.468;2022-12-05T08:03:15;3.33;;;2.20;;
6203;SDS011;3135;42.602;23.468;2022-12-05T08:05:41;7.30;;;5.05;;
6203;SDS011;3135;42.602;23.468;2022-12-05T08:08:07;3.17;;;2.63;;
6203;SDS011;3135;42.602;23.468;2022-12-05T08:10:33;6.07;;;3.57;;
6203;SDS011;3135;42.602;23.468;2022-12-05T08:12:59;5.07;;;3.60;;
6203;SDS011;3135;42.602;23.468;2022-12-05T08:15:24;8.50;;;4.50;;
6203;SDS011;3135;42.602;23.468;2022-12-05T08:17:49;10.77;;;5.22;;
6203;SDS011;3135;42.602;23.468;2022-12-05T08:20:15;21.40;;;6.80;;
6203;SDS011;3135;42.602;23.468;2022-12-05T08:22:40;9.82;;;4.40;;
6203;SDS011;3135;42.602;23.468;2022-12-05T08:25:06;7.78;;;3.50;;
6203;SDS011;3135;42.602;23.468;2022-12-05T08:27:31;5.25;;;3.05;;
6203;SDS011;3135;42.602;23.468;2022-12-05T08:29:57;5.37;;;3.03;;
6203;SDS011;3135;42.602;23.468;2022-12-05T08:32:22;4.17;;;3.10;;
6203;SDS011;3135;42.602;23.468;2022-12-05T08:34:48;2.53;;;2.00;;
6203;SDS011;3135;42.602;23.468;2022-12-05T08:37:13;2.97;;;2.20;;
6203;SDS011;3135;42.602;23.468;2022-12-05T08:39:38;2.60;;;1.70;;
6203;SDS011;3135;42.602;23.468;2022-12-05T08:42:04;3.17;;;2.10;;
6203;SDS011;3135;42.602;23.468;2022-12-05T08:44:29;3.30;;;2.40;;
6203;SDS011;3135;42.602;23.468;2022-12-05T08:46:55;2.53;;;2.25;;
6203;SDS011;3135;42.602;23.468;2022-12-05T08:49:20;10.30;;;4.05;;
6203;SDS011;3135;42.602;23.468;2022-12-05T08:51:46;6.13;;;3.20;;
6203;SDS011;3135;42.602;23.468;2022-12-05T08:54:11;5.57;;;2.70;;
6203;SDS011;3135;42.602;23.468;2022-12-05T08:56:37;10.32;;;6.90;;
6203;SDS011;3135;42.602;23.468;2022-12-05T08:59:03;12.37;;;6.97;;
6203;SDS011;3135;42.602;23.468;2022-12-05T09:01:29;7.68;;;4.57;;
6203;SDS011;3135;42.602;23.468;2022-12-05T09:03:56;12.02;;;4.70;;
6203;SDS011;3135;42.602;23.468;2022-12-05T09:06:24;7.53;;;4.10;;
6203;SDS011;3135;42.602;23.468;2022-12-05T09:08:54;11.40;;;5.70;;
6203;SDS011;3135;42.602;23.468;2022-12-05T09:11:22;7.43;;;3.60;;
6203;SDS011;3135;42.602;23.468;2022-12-05T09:13:50;4.30;;;3.00;;
6203;SDS011;3135;42.602;23.468;2022-12-05T09:16:18;3.13;;;2.30;;
6203;SDS011;3135;42.602;23.468;2022-12-05T09:18:46;3.15;;;2.25;;
6203;SDS011;3135;42.602;23.468;2022-12-05T09:21:16;4.32;;;2.30;;
6203;SDS011;3135;42.602;23.468;2022-12-05T09:23:44;6.13;;;3.40;;
6203;SDS011;3135;42.602;23.468;2022-12-05T09:26:11;2.92;;;2.35;;
6203;SDS011;3135;42.602;23.468;2022-12-05T09:28:40;2.75;;;1.80;;
6203;SDS011;3135;42.602;23.468;2022-12-05T09:31:07;6.47;;;3.60;;
6203;SDS011;3135;42.602;23.468;2022-12-05T09:33:37;3.65;;;2.25;;
6203;SDS011;3135;42.602;23.468;2022-12-05T09:36:08;2.30;;;2.07;;
6203;SDS011;3135;42.602;23.468;2022-12-05T09:38:37;6.53;;;4.20;;
6203;SDS011;3135;42.602;23.468;2022-12-05T09:49:18;13.40;;;6.72;;
6203;SDS011;3135;42.602;23.468;2022-12-05T09:51:45;8.38;;;4.55;;
6203;SDS011;3135;42.602;23.468;2022-12-05T09:54:13;25.65;;;11.35;;
6203;SDS011;3135;42.602;23.468;2022-12-05T09:56:39;4.75;;;3.08;;
6203;SDS011;3135;42.602;23.468;2022-12-05T09:59:11;4.35;;;2.70;;
6203;SDS011;3135;42.602;23.468;2022-12-05T10:01:57;2.83;;;2.30;;
6203;SDS011;3135;42.602;23.468;2022-12-05T10:07:08;4.85;;;2.92;;
6203;SDS011;3135;42.602;23.468;2022-12-05T10:18:09;18.05;;;7.47;;
6203;SDS011;3135;42.602;23.468;2022-12-05T10:20:54;59.80;;;26.27;;
6203;SDS011;3135;42.602;23.468;2022-12-05T10:23:28;14.25;;;6.70;;
6203;SDS011;3135;42.602;23.468;2022-12-05T10:26:01;7.90;;;5.57;;
6203;SDS011;3135;42.602;23.468;2022-12-05T10:28:51;11.70;;;6.30;;
6203;SDS011;3135;42.602;23.468;2022-12-05T10:31:38;4.95;;;3.30;;
6203;SDS011;3135;42.602;23.468;2022-12-05T10:36:38;2.53;;;2.33;;
6203;SDS011;3135;42.602;23.468;2022-12-05T10:39:05;3.22;;;2.47;;
6203;SDS011;3135;42.602;23.468;2022-12-05T10:41:31;2.87;;;1.97;;
6203;SDS011;3135;42.602;23.468;2022-12-05T10:43:58;5.13;;;3.30;;
6203;SDS011;3135;42.602;23.468;2022-12-05T10:46:24;3.25;;;2.63;;
6203;SDS011;3135;42.602;23.468;2022-12-05T10:48:49;3.50;;;2.40;;
6203;SDS011;3135;42.602;23.468;2022-12-05T10:51:19;7.00;;;3.60;;
6203;SDS011;3135;42.602;23.468;2022-12-05T10:53:50;11.07;;;5.33;;
6203;SDS011;3135;42.602;23.468;2022-12-05T10:59:19;6.30;;;3.90;;
6203;SDS011;3135;42.602;23.468;2022-12-05T11:01:50;7.85;;;4.47;;
6203;SDS011;3135;42.602;23.468;2022-12-05T11:04:59;9.18;;;4.32;;
6203;SDS011;3135;42.602;23.468;2022-12-05T11:07:09;10.98;;;5.45;;
6203;SDS011;3135;42.602;23.468;2022-12-05T11:09:50;13.17;;;6.07;;
6203;SDS011;3135;42.602;23.468;2022-12-05T11:12:34;11.18;;;5.55;;
6203;SDS011;3135;42.602;23.468;2022-12-05T11:15:04;8.57;;;4.40;;
6203;SDS011;3135;42.602;23.468;2022-12-05T11:17:43;11.70;;;5.63;;
6203;SDS011;3135;42.602;23.468;2022-12-05T11:22:50;5.28;;;2.72;;
6203;SDS011;3135;42.602;23.468;2022-12-05T11:27:52;13.43;;;6.63;;
6203;SDS011;3135;42.602;23.468;2022-12-05T11:30:20;5.80;;;3.53;;
6203;SDS011;3135;42.602;23.468;2022-12-05T11:32:48;6.73;;;3.87;;
6203;SDS011;3135;42.602;23.468;2022-12-05T11:35:21;7.97;;;3.88;;
6203;SDS011;3135;42.602;23.468;2022-12-05T11:40:26;11.52;;;5.43;;
6203;SDS011;3135;42.602;23.468;2022-12-05T11:51:43;29.77;;;10.50;;
6203;SDS011;3135;42.602;23.468;2022-12-05T12:14:10;26.20;;;11.60;;
6203;SDS011;3135;42.602;23.468;2022-12-05T12:28:14;27.27;;;11.47;;
6203;SDS011;3135;42.602;23.468;2022-12-05T12:31:01;18.33;;;8.25;;
6203;SDS011;3135;42.602;23.468;2022-12-05T12:36:25;19.88;;;9.25;;
6203;SDS011;3135;42.602;23.468;2022-12-05T12:39:13;23.10;;;9.53;;
6203;SDS011;3135;42.602;23.468;2022-12-05T12:44:31;20.67;;;8.60;;
6203;SDS011;3135;42.602;23.468;2022-12-05T12:47:16;19.90;;;8.63;;
6203;SDS011;3135;42.602;23.468;2022-12-05T12:50:10;22.83;;;9.38;;
6203;SDS011;3135;42.602;23.468;2022-12-05T12:52:56;19.17;;;8.63;;
6203;SDS011;3135;42.602;23.468;2022-12-05T12:55:37;23.73;;;9.68;;
6203;SDS011;3135;42.602;23.468;2022-12-05T13:03:53;32.90;;;14.32;;
6203;SDS011;3135;42.602;23.468;2022-12-05T13:09:27;37.58;;;15.20;;
6203;SDS011;3135;42.602;23.468;2022-12-05T13:11:59;30.30;;;11.85;;
6203;SDS011;3135;42.602;23.468;2022-12-05T13:14:29;37.60;;;14.30;;
6203;SDS011;3135;42.602;23.468;2022-12-05T13:16:58;32.38;;;12.32;;
6203;SDS011;3135;42.602;23.468;2022-12-05T13:22:10;31.50;;;12.73;;
6203;SDS011;3135;42.602;23.468;2022-12-05T13:24:38;34.60;;;12.25;;
6203;SDS011;3135;42.602;23.468;2022-12-05T13:27:04;30.13;;;12.48;;
6203;SDS011;3135;42.602;23.468;2022-12-05T13:32:40;44.60;;;16.23;;
6203;SDS011;3135;42.602;23.468;2022-12-05T13:37:31;31.47;;;12.13;;
6203;SDS011;3135;42.602;23.468;2022-12-05T13:40:27;42.30;;;14.90;;
6203;SDS011;3135;42.602;23.468;2022-12-05T13:43:14;39.97;;;15.45;;
6203;SDS011;3135;42.602;23.468;2022-12-05T13:45:56;47.55;;;16.90;;
6203;SDS011;3135;42.602;23.468;2022-12-05T13:48:24;49.53;;;18.30;;
6203;SDS011;3135;42.602;23.468;2022-12-05T13:51:07;42.85;;;16.65;;
6203;SDS011;3135;42.602;23.468;2022-12-05T13:54:01;32.10;;;13.48;;
6203;SDS011;3135;42.602;23.468;2022-12-05T13:56:56;37.28;;;15.40;;
6203;SDS011;3135;42.602;23.468;2022-12-05T14:10:23;82.07;;;29.30;;
6203;SDS011;3135;42.602;23.468;2022-12-05T14:15:38;68.82;;;27.52;;
6203;SDS011;3135;42.602;23.468;2022-12-05T14:21:19;42.45;;;18.30;;
6203;SDS011;3135;42.602;23.468;2022-12-05T14:24:18;70.63;;;27.30;;
6203;SDS011;3135;42.602;23.468;2022-12-05T14:32:43;43.28;;;19.13;;
6203;SDS011;3135;42.602;23.468;2022-12-05T14:35:10;50.07;;;19.43;;
6203;SDS011;3135;42.602;23.468;2022-12-05T14:37:50;44.75;;;18.40;;
6203;SDS011;3135;42.602;23.468;2022-12-05T14:45:32;91.93;;;31.35;;
6203;SDS011;3135;42.602;23.468;2022-12-05T14:48:24;92.60;;;32.50;;
6203;SDS011;3135;42.602;23.468;2022-12-05T14:54:03;84.10;;;27.90;;
6203;SDS011;3135;42.602;23.468;2022-12-05T14:56:38;77.22;;;29.52;;
6203;SDS011;3135;42.602;23.468;2022-12-05T15:01:44;80.57;;;26.37;;
6203;SDS011;3135;42.602;23.468;2022-12-05T15:04:16;53.55;;;18.38;;
6203;SDS011;3135;42.602;23.468;2022-12-05T15:07:01;48.63;;;17.88;;
6203;SDS011;3135;42.602;23.468;2022-12-05T15:12:01;69.05;;;29.35;;
6203;SDS011;3135;42.602;23.468;2022-12-05T15:14:30;79.18;;;31.40;;
6203;SDS011;3135;42.602;23.468;2022-12-05T15:17:03;82.00;;;30.53;;
6203;SDS011;3135;42.602;23.468;2022-12-05T15:19:42;82.85;;;30.85;;
6203;SDS011;3135;42.602;23.468;2022-12-05T15:22:13;109.30;;;37.97;;
6203;SDS011;3135;42.602;23.468;2022-12-05T15:24:40;61.60;;;24.23;;
6203;SDS011;3135;42.602;23.468;2022-12-05T15:27:07;79.43;;;30.07;;
6203;SDS011;3135;42.602;23.468;2022-12-05T15:29:38;60.72;;;22.95;;
6203;SDS011;3135;42.602;23.468;2022-12-05T15:32:13;75.13;;;26.90;;
6203;SDS011;3135;42.602;23.468;2022-12-05T15:37:23;141.50;;;53.88;;
6203;SDS011;3135;42.602;23.468;2022-12-05T15:42:30;57.33;;;23.98;;
6203;SDS011;3135;42.602;23.468;2022-12-05T15:47:46;47.28;;;18.23;;
6203;SDS011;3135;42.602;23.468;2022-12-05T15:50:13;65.43;;;26.60;;
6203;SDS011;3135;42.602;23.468;2022-12-05T15:52:49;41.50;;;18.13;;
6203;SDS011;3135;42.602;23.468;2022-12-05T15:58:48;36.42;;;15.57;;
6203;SDS011;3135;42.602;23.468;2022-12-05T16:01:14;24.85;;;10.88;;
6203;SDS011;3135;42.602;23.468;2022-12-05T16:06:18;16.33;;;7.63;;
6203;SDS011;3135;42.602;23.468;2022-12-05T16:08:49;45.35;;;14.93;;
6203;SDS011;3135;42.602;23.468;2022-12-05T16:11:16;19.83;;;8.23;;
6203;SDS011;3135;42.602;23.468;2022-12-05T16:13:43;19.73;;;7.32;;
6203;SDS011;3135;42.602;23.468;2022-12-05T16:16:15;13.10;;;6.85;;
6203;SDS011;3135;42.602;23.468;2022-12-05T16:18:55;8.68;;;4.45;;
6203;SDS011;3135;42.602;23.468;2022-12-05T16:21:35;15.73;;;6.82;;
6203;SDS011;3135;42.602;23.468;2022-12-05T16:26:56;12.75;;;5.68;;
6203;SDS011;3135;42.602;23.468;2022-12-05T16:29:30;14.65;;;5.28;;
6203;SDS011;3135;42.602;23.468;2022-12-05T16:31:58;13.30;;;4.53;;
6203;SDS011;3135;42.602;23.468;2022-12-05T16:34:27;9.77;;;4.60;;
6203;SDS011;3135;42.602;23.468;2022-12-05T16:36:56;5.70;;;3.55;;
6203;SDS011;3135;42.602;23.468;2022-12-05T16:39:23;11.57;;;5.07;;
6203;SDS011;3135;42.602;23.468;2022-12-05T16:41:50;22.38;;;10.93;;
6203;SDS011;3135;42.602;23.468;2022-12-05T16:44:59;29.02;;;10.75;;
6203;SDS011;3135;42.602;23.468;2022-12-05T16:52:49;7.45;;;4.07;;
6203;SDS011;3135;42.602;23.468;2022-12-05T16:55:24;9.10;;;4.63;;
6203;SDS011;3135;42.602;23.468;2022-12-05T16:57:49;6.70;;;3.53;;
6203;SDS011;3135;42.602;23.468;2022-12-05T17:00:15;6.50;;;3.83;;
6203;SDS011;3135;42.602;23.468;2022-12-05T17:02:40;6.00;;;3.83;;
6203;SDS011;3135;42.602;23.468;2022-12-05T17:05:11;20.55;;;9.73;;
6203;SDS011;3135;42.602;23.468;2022-12-05T17:07:38;13.00;;;5.10;;
6203;SDS011;3135;42.602;23.468;2022-12-05T17:10:03;7.30;;;4.00;;
6203;SDS011;3135;42.602;23.468;2022-12-05T17:12:29;8.05;;;4.05;;
6203;SDS011;3135;42.602;23.468;2022-12-05T17:14:55;6.87;;;4.03;;
6203;SDS011;3135;42.602;23.468;2022-12-05T17:17:20;6.73;;;3.43;;
6203;SDS011;3135;42.602;23.468;2022-12-05T17:19:46;12.30;;;6.60;;
6203;SDS011;3135;42.602;23.468;2022-12-05T17:22:12;13.95;;;7.47;;
6203;SDS011;3135;42.602;23.468;2022-12-05T17:24:39;14.00;;;7.10;;
6203;SDS011;3135;42.602;23.468;2022-12-05T17:27:05;9.20;;;5.10;;
6203;SDS011;3135;42.602;23.468;2022-12-05T17:29:33;10.68;;;5.68;;
6203;SDS011;3135;42.602;23.468;2022-12-05T17:31:58;8.23;;;4.20;;
6203;SDS011;3135;42.602;23.468;2022-12-05T17:34:24;8.43;;;4.37;;
6203;SDS011;3135;42.602;23.468;2022-12-05T17:36:49;7.85;;;5.00;;
6203;SDS011;3135;42.602;23.468;2022-12-05T17:39:14;8.77;;;4.45;;
6203;SDS011;3135;42.602;23.468;2022-12-05T17:41:40;9.73;;;4.32;;
6203;SDS011;3135;42.602;23.468;2022-12-05T17:44:06;7.80;;;4.07;;
6203;SDS011;3135;42.602;23.468;2022-12-05T17:46:31;21.03;;;8.13;;
6203;SDS011;3135;42.602;23.468;2022-12-05T17:48:57;10.15;;;5.15;;
6203;SDS011;3135;42.602;23.468;2022-12-05T17:51:22;7.80;;;4.82;;
6203;SDS011;3135;42.602;23.468;2022-12-05T17:53:48;8.77;;;4.30;;
6203;SDS011;3135;42.602;23.468;2022-12-05T17:56:14;8.97;;;4.37;;
6203;SDS011;3135;42.602;23.468;2022-12-05T17:58:40;8.38;;;4.10;;
6203;SDS011;3135;42.602;23.468;2022-12-05T18:01:06;8.38;;;4.50;;
6203;SDS011;3135;42.602;23.468;2022-12-05T18:03:34;8.32;;;4.20;;
6203;SDS011;3135;42.602;23.468;2022-12-05T18:06:02;11.40;;;6.23;;
6203;SDS011;3135;42.602;23.468;2022-12-05T18:08:29;10.55;;;4.43;;
6203;SDS011;3135;42.602;23.468;2022-12-05T18:10:54;8.37;;;4.13;;
6203;SDS011;3135;42.602;23.468;2022-12-05T18:13:20;8.43;;;4.18;;
6203;SDS011;3135;42.602;23.468;2022-12-05T18:15:46;6.82;;;3.83;;
6203;SDS011;3135;42.602;23.468;2022-12-05T18:18:13;8.83;;;4.30;;
6203;SDS011;3135;42.602;23.468;2022-12-05T18:20:40;6.40;;;4.03;;
6203;SDS011;3135;42.602;23.468;2022-12-05T18:23:06;10.27;;;3.90;;
6203;SDS011;3135;42.602;23.468;2022-12-05T18:25:31;9.27;;;4.10;;